Aruja, Brazil
Current Conditions -  °F | °C
As of 3:00 AM on Sunday 26 Oct 2014 (Local Time) from SBGR Reporting Station
Haze Haze  
Wind Chill: 66°   Ceiling: Unl
Heat Index: 66°   Visibility: 3mi
Dew Point: 64°   Wind: 7mph
Humidity: 94%   Direction: 40°NE
Pressure: 29.97"   Gusts: NA
Location:  23.4°S, 46.34°W
Report Text: SBGR 260500Z 04006KT 5000 BR SCT010 SCT100 19/18 Q1015
Loading
Personal Weather Stations






























Interactive Weather Map
Tropical Storm Tracking
New forecast layout! Learn more

10-Day Weather Forecast

Advertisements
Track Severe Weather on mobile